createdAt,value
2022-12-26T00:00:38.622Z,100403.37
2022-12-26T00:03:06.485Z,100410.34
2022-12-26T00:05:37.245Z,100417.34
2022-12-26T00:08:04.961Z,100418.19
2022-12-26T00:10:32.653Z,100412.97
2022-12-26T00:13:37.440Z,100406.87
2022-12-26T00:15:48.281Z,100406.03
2022-12-26T00:18:15.650Z,100417.28
2022-12-26T00:20:43.280Z,100417.31
2022-12-26T00:23:11.030Z,100416.47
2022-12-26T00:25:38.495Z,100412.09
2022-12-26T00:28:05.851Z,100412.97
2022-12-26T00:30:33.560Z,100412.09
2022-12-26T00:33:00.908Z,100399.91
2022-12-26T00:35:28.281Z,100404.25
2022-12-26T00:37:55.954Z,100404.25
2022-12-26T00:40:23.301Z,100401.62
2022-12-26T00:42:50.662Z,100398.16
2022-12-26T00:45:18.446Z,100413.84
2022-12-26T00:47:46.009Z,100410.37
2022-12-26T00:50:15.841Z,100409.50
2022-12-26T00:52:43.980Z,100415.59
2022-12-26T00:55:11.338Z,100406.87
2022-12-26T00:57:38.686Z,100419.06
2022-12-26T01:00:07.179Z,100414.69
2022-12-26T01:02:40.429Z,100415.56
2022-12-26T01:05:10.310Z,100414.69
2022-12-26T01:08:20.422Z,100409.44
2022-12-26T01:10:27.694Z,100407.69
2022-12-26T01:12:55.372Z,100405.97
2022-12-26T01:15:22.841Z,100404.22
2022-12-26T01:17:50.682Z,100402.50
2022-12-26T01:20:18.157Z,100394.66
2022-12-26T01:22:45.561Z,100407.72
2022-12-26T01:25:13.313Z,100402.50
2022-12-26T01:27:40.750Z,100396.41
2022-12-26T01:30:08.593Z,100401.59
2022-12-26T01:32:36.239Z,100385.06
2022-12-26T01:35:03.930Z,100378.97
2022-12-26T01:37:31.473Z,100385.97
2022-12-26T01:39:59.172Z,100377.22
2022-12-26T01:42:39.334Z,100376.37
2022-12-26T01:45:27.483Z,100378.09
2022-12-26T01:48:12.172Z,100375.47
2022-12-26T01:50:42.875Z,100365.94
2022-12-26T01:53:29.332Z,100369.37
2022-12-26T01:56:08.310Z,100366.78
2022-12-26T01:58:47.577Z,100366.75
2022-12-26T02:01:15.388Z,100360.62
2022-12-26T02:04:04.227Z,100360.62
2022-12-26T02:06:32.747Z,100364.12
2022-12-26T02:09:00.374Z,100361.53
2022-12-26T02:11:41.302Z,100364.12
2022-12-26T02:14:09.293Z,100360.62
2022-12-26T02:16:38.121Z,100361.44
2022-12-26T02:19:09.430Z,100358.81
2022-12-26T02:22:09.542Z,100357.06
2022-12-26T02:24:36.887Z,100355.25
2022-12-26T02:27:54.042Z,100351.78
2022-12-26T02:30:46.575Z,100355.34
2022-12-26T02:33:20.625Z,100362.19
2022-12-26T02:36:06.454Z,100345.75
2022-12-26T02:38:52.656Z,100350.03
2022-12-26T02:41:47.181Z,100341.31
2022-12-26T02:44:40.994Z,100336.09
2022-12-26T02:47:18.085Z,100329.13
2022-12-26T02:50:35.100Z,100335.09
2022-12-26T02:53:54.477Z,100345.56
2022-12-26T02:56:49.146Z,100357.62
2022-12-26T03:00:00.184Z,100345.47
2022-12-26T03:03:00.441Z,100336.75
2022-12-26T03:05:50.394Z,100319.41
2022-12-26T03:09:15.868Z,100321.16
2022-12-26T03:12:04.648Z,100321.09
2022-12-26T03:14:38.330Z,100326.25
2022-12-26T03:17:19.928Z,100331.47
2022-12-26T03:20:01.804Z,100321.03
2022-12-26T03:22:35.234Z,100318.34
2022-12-26T03:25:29.794Z,100322.81
2022-12-26T03:27:58.497Z,100317.53
2022-12-26T03:30:44.930Z,100322.81
2022-12-26T03:33:30.695Z,100328.84
2022-12-26T03:35:58.746Z,100328.66
2022-12-26T03:38:51.122Z,100333.94
2022-12-26T03:41:46.315Z,100339.16
2022-12-26T03:44:35.445Z,100340.09
2022-12-26T03:47:56.592Z,100346.06
2022-12-26T03:50:54.172Z,100332.19
2022-12-26T03:53:49.846Z,100340.00
2022-12-26T03:56:40.524Z,100340.84
2022-12-26T03:59:30.388Z,100345.09
2022-12-26T04:02:19.977Z,100352.09
2022-12-26T04:05:07.878Z,100352.13
2022-12-26T04:07:59.461Z,100362.31
2022-12-26T04:10:55.579Z,100363.13
2022-12-26T04:13:49.687Z,100364.88
2022-12-26T04:16:44.619Z,100360.66
2022-12-26T04:19:27.401Z,100353.75
2022-12-26T04:22:30.157Z,100364.84
2022-12-26T04:25:49.576Z,100358.84
2022-12-26T04:28:39.186Z,100369.16
2022-12-26T04:31:33.437Z,100354.34
2022-12-26T04:34:21.722Z,100358.75
2022-12-26T04:37:19.441Z,100350.13
2022-12-26T04:40:08.894Z,100349.16
2022-12-26T04:42:55.902Z,100357.03
2022-12-26T04:45:25.200Z,100360.44
2022-12-26T04:48:11.168Z,100356.19
2022-12-26T04:50:52.477Z,100359.69
2022-12-26T04:53:20.332Z,100349.13
2022-12-26T04:55:48.153Z,100343.03
2022-12-26T04:58:15.930Z,100343.06
2022-12-26T05:00:43.335Z,100353.44
2022-12-26T05:03:32.380Z,100350.91
2022-12-26T05:06:18.940Z,100343.03
2022-12-26T05:09:06.274Z,100348.28
2022-12-26T05:11:35.198Z,100347.31
2022-12-26T05:14:02.874Z,100352.63
2022-12-26T05:16:48.864Z,100349.06
2022-12-26T05:19:36.452Z,100359.59
2022-12-26T05:22:23.562Z,100360.44
2022-12-26T05:25:10.805Z,100351.69
2022-12-26T05:28:00.109Z,100345.59
2022-12-26T05:30:28.392Z,100350.88
2022-12-26T05:33:14.420Z,100352.22
2022-12-26T05:35:42.179Z,100347.28
2022-12-26T05:38:10.974Z,100334.16
2022-12-26T05:40:38.400Z,100343.66
2022-12-26T05:43:06.204Z,100337.62
2022-12-26T05:45:33.587Z,100335.84
2022-12-26T05:48:01.552Z,100337.50
2022-12-26T05:50:29.567Z,100324.66
2022-12-26T05:52:58.155Z,100335.91
2022-12-26T05:55:26.130Z,100344.50
2022-12-26T05:57:53.865Z,100339.44
2022-12-26T06:00:21.545Z,100345.50
2022-12-26T06:02:49.403Z,100343.62
2022-12-26T06:05:17.260Z,100350.31
2022-12-26T06:07:44.742Z,100353.97
2022-12-26T06:10:12.774Z,100342.03
2022-12-26T06:12:40.204Z,100347.03
2022-12-26T06:15:08.052Z,100347.03
2022-12-26T06:17:35.895Z,100336.75
2022-12-26T06:20:03.595Z,100340.91
2022-12-26T06:22:31.167Z,100337.38
2022-12-26T06:24:58.932Z,100337.38
2022-12-26T06:27:26.361Z,100333.06
2022-12-26T06:29:53.762Z,100333.00
2022-12-26T06:32:21.485Z,100328.56
2022-12-26T06:34:48.921Z,100331.09
2022-12-26T06:37:16.839Z,100335.50
2022-12-26T06:39:44.513Z,100334.44
2022-12-26T06:42:11.869Z,100336.88
2022-12-26T06:44:39.340Z,100337.03
2022-12-26T06:47:07.104Z,100329.91
2022-12-26T06:49:34.530Z,100331.63
2022-12-26T06:52:01.877Z,100342.00
2022-12-26T06:54:29.574Z,100338.53
2022-12-26T06:56:56.978Z,100338.34
2022-12-26T06:59:24.338Z,100325.50
2022-12-26T07:01:52.127Z,100335.84
2022-12-26T07:04:19.625Z,100333.34
2022-12-26T07:06:47.059Z,100339.38
2022-12-26T07:09:17.147Z,100332.34
2022-12-26T07:11:47.352Z,100342.78
2022-12-26T07:14:15.118Z,100353.03
2022-12-26T07:16:44.074Z,100358.25
2022-12-26T07:19:13.439Z,100366.19
2022-12-26T07:21:41.827Z,100358.59
2022-12-26T07:24:17.241Z,100370.56
2022-12-26T07:26:45.694Z,100369.69
2022-12-26T07:29:13.470Z,100368.81
2022-12-26T07:31:41.823Z,100373.94
2022-12-26T07:34:09.668Z,100368.69
2022-12-26T07:36:37.047Z,100369.91
2022-12-26T07:39:04.514Z,100383.47
2022-12-26T07:41:51.190Z,100365.41
2022-12-26T07:44:18.832Z,100378.53
2022-12-26T07:46:46.793Z,100377.69
2022-12-26T07:49:14.663Z,100365.50
2022-12-26T07:51:42.602Z,100368.25
2022-12-26T07:54:11.548Z,100386.25
2022-12-26T07:56:40.295Z,100379.50
2022-12-26T07:59:09.805Z,100391.56
2022-12-26T08:01:37.594Z,100390.56
2022-12-26T08:04:05.321Z,100391.62
2022-12-26T08:06:32.684Z,100398.59
2022-12-26T08:09:00.330Z,100391.50
2022-12-26T08:11:28.757Z,100397.34
2022-12-26T08:13:56.211Z,100388.03
2022-12-26T08:16:23.653Z,100371.81
2022-12-26T08:18:51.438Z,100384.72
2022-12-26T08:21:18.818Z,100377.97
2022-12-26T08:23:48.227Z,100382.25
2022-12-26T08:26:20.854Z,100392.75
2022-12-26T08:28:48.271Z,100395.25
2022-12-26T08:31:16.135Z,100400.00
2022-12-26T08:33:43.599Z,100399.81
2022-12-26T08:36:12.940Z,100398.78
2022-12-26T08:38:40.923Z,100395.50
2022-12-26T08:41:08.819Z,100394.13
2022-12-26T08:44:16.443Z,100400.09
2022-12-26T08:46:24.726Z,100402.38
2022-12-26T08:48:52.214Z,100402.56
2022-12-26T08:51:22.367Z,100401.59
2022-12-26T08:53:51.256Z,100389.53
2022-12-26T08:56:26.661Z,100394.72
2022-12-26T08:58:55.033Z,100393.94
2022-12-26T09:01:24.731Z,100389.00
2022-12-26T09:03:53.810Z,100398.59
2022-12-26T09:06:22.047Z,100401.31
2022-12-26T09:08:49.589Z,100407.56
2022-12-26T09:11:22.802Z,100400.75
2022-12-26T09:13:50.985Z,100403.44
2022-12-26T09:16:23.840Z,100412.91
2022-12-26T09:18:57.104Z,100419.87
2022-12-26T09:21:24.933Z,100419.97
2022-12-26T09:24:03.850Z,100420.00
2022-12-26T09:26:32.046Z,100411.34
2022-12-26T09:28:59.915Z,100415.72
2022-12-26T09:31:32.950Z,100419.22
2022-12-26T09:34:06.511Z,100417.63
2022-12-26T09:36:38.206Z,100426.34
2022-12-26T09:39:06.340Z,100422.03
2022-12-26T09:41:51.823Z,100417.75
2022-12-26T09:44:44.449Z,100409.16
2022-12-26T09:48:03.444Z,100405.78
2022-12-26T09:50:38.272Z,100419.63
2022-12-26T09:53:13.941Z,100420.56
2022-12-26T09:55:46.147Z,100406.72
2022-12-26T09:58:24.829Z,100406.78
2022-12-26T10:01:01.268Z,100415.44
2022-12-26T10:03:37.825Z,100402.44
2022-12-26T10:06:13.770Z,100411.13
2022-12-26T10:08:59.568Z,100405.06
2022-12-26T10:11:35.987Z,100399.00
2022-12-26T10:14:26.422Z,100401.62
2022-12-26T10:17:01.403Z,100399.03
2022-12-26T10:19:37.654Z,100394.69
2022-12-26T10:22:11.118Z,100391.22
2022-12-26T10:24:40.429Z,100395.56
2022-12-26T10:27:16.992Z,100391.22
2022-12-26T10:30:04.388Z,100388.59
2022-12-26T10:32:41.585Z,100377.25
2022-12-26T10:35:21.475Z,100361.59
2022-12-26T10:37:50.457Z,100364.25
2022-12-26T10:40:25.136Z,100367.72
2022-12-26T10:42:55.393Z,100363.38
2022-12-26T10:45:48.017Z,100353.75
2022-12-26T10:48:16.201Z,100358.97
2022-12-26T10:50:47.836Z,100352.00
2022-12-26T10:53:16.425Z,100343.28
2022-12-26T10:55:44.258Z,100343.25
2022-12-26T10:58:20.388Z,100322.37
2022-12-26T11:00:48.067Z,100340.62
2022-12-26T11:03:17.959Z,100317.06
2022-12-26T11:06:11.371Z,100327.53
2022-12-26T11:08:49.379Z,100311.00
2022-12-26T11:11:26.448Z,100314.47
2022-12-26T11:14:01.852Z,100307.44
2022-12-26T11:16:40.343Z,100302.19
2022-12-26T11:19:26.619Z,100297.81
2022-12-26T11:21:53.990Z,100300.47
2022-12-26T11:24:21.800Z,100293.53
2022-12-26T11:26:49.299Z,100294.19
2022-12-26T11:29:25.952Z,100294.28
2022-12-26T11:31:58.281Z,100294.25
2022-12-26T11:34:37.613Z,100292.47
2022-12-26T11:37:06.405Z,100296.84
2022-12-26T11:39:36.330Z,100296.81
2022-12-26T11:42:11.914Z,100310.63
2022-12-26T11:44:45.509Z,100304.41
2022-12-26T11:47:25.737Z,100292.28
2022-12-26T11:50:06.861Z,100294.00
2022-12-26T11:52:52.856Z,100299.09
2022-12-26T11:55:24.063Z,100298.25
2022-12-26T11:58:19.333Z,100291.31
2022-12-26T12:00:50.085Z,100295.84
2022-12-26T12:03:32.350Z,100295.78
2022-12-26T12:06:27.888Z,100287.03
2022-12-26T12:09:32.917Z,100299.28
2022-12-26T12:12:30.675Z,100294.00
2022-12-26T12:15:57.125Z,100280.13
2022-12-26T12:18:54.957Z,100285.25
2022-12-26T12:21:28.438Z,100273.91
2022-12-26T12:24:20.613Z,100276.53
2022-12-26T12:27:13.543Z,100284.44
2022-12-26T12:29:59.649Z,100280.06
2022-12-26T12:32:39.143Z,100273.88
2022-12-26T12:35:18.701Z,100271.37
2022-12-26T12:38:04.936Z,100278.34
2022-12-26T12:41:01.815Z,100287.00
2022-12-26T12:43:44.918Z,100285.22
2022-12-26T12:46:40.929Z,100281.81
2022-12-26T12:49:19.928Z,100278.31
2022-12-26T12:52:02.325Z,100263.41
2022-12-26T12:54:40.787Z,100266.81
2022-12-26T12:57:16.447Z,100260.66
2022-12-26T12:59:46.829Z,100259.91
2022-12-26T13:02:23.885Z,100256.44
2022-12-26T13:04:57.949Z,100266.72
2022-12-26T13:07:31.371Z,100258.13
2022-12-26T13:10:04.364Z,100257.09
2022-12-26T13:12:42.647Z,100249.50
2022-12-26T13:15:19.448Z,100254.75
2022-12-26T13:17:56.444Z,100254.72
2022-12-26T13:20:33.093Z,100259.09
2022-12-26T13:23:32.446Z,100261.69
2022-12-26T13:26:11.769Z,100259.91
2022-12-26T13:29:03.345Z,100262.69
2022-12-26T13:31:36.015Z,100260.09
2022-12-26T13:34:05.422Z,100260.19
2022-12-26T13:36:38.720Z,100261.03
2022-12-26T13:39:12.200Z,100264.47
2022-12-26T13:42:12.814Z,100258.38
2022-12-26T13:44:40.928Z,100259.25
2022-12-26T13:47:32.064Z,100264.47
2022-12-26T13:50:37.956Z,100272.25
2022-12-26T13:53:24.411Z,100263.59
2022-12-26T13:55:56.953Z,100263.75
2022-12-26T13:58:56.045Z,100264.59
2022-12-26T14:01:29.593Z,100266.44
2022-12-26T14:04:19.084Z,100267.25
2022-12-26T14:07:05.186Z,100275.19
2022-12-26T14:09:35.901Z,100278.53
2022-12-26T14:12:15.355Z,100277.78
2022-12-26T14:14:55.889Z,100274.31
2022-12-26T14:17:26.217Z,100278.66
2022-12-26T14:20:28.095Z,100278.72
2022-12-26T14:23:07.512Z,100275.19
2022-12-26T14:25:57.196Z,100266.56
2022-12-26T14:28:31.401Z,100277.94
2022-12-26T14:31:05.125Z,100284.94
2022-12-26T14:33:38.569Z,100285.75
2022-12-26T14:36:25.321Z,100284.94
2022-12-26T14:39:03.819Z,100282.34
2022-12-26T14:42:25.483Z,100284.91
2022-12-26T14:44:58.312Z,100283.22
2022-12-26T14:47:36.195Z,100301.59
2022-12-26T14:50:39.187Z,100307.63
2022-12-26T14:53:34.614Z,100303.28
2022-12-26T14:56:08.087Z,100293.72
2022-12-26T14:58:42.124Z,100291.13
2022-12-26T15:01:09.665Z,100289.34
2022-12-26T15:03:53.213Z,100275.44
2022-12-26T15:06:20.591Z,100272.88
2022-12-26T15:09:25.362Z,100277.22
2022-12-26T15:12:12.804Z,100278.97
2022-12-26T15:15:04.251Z,100289.41
2022-12-26T15:18:06.533Z,100279.84
2022-12-26T15:21:12.215Z,100272.94
2022-12-26T15:23:50.364Z,100273.78
2022-12-26T15:26:39.604Z,100274.63
2022-12-26T15:29:44.249Z,100270.28
2022-12-26T15:32:23.651Z,100265.94
2022-12-26T15:34:57.913Z,100261.59
2022-12-26T15:37:40.870Z,100268.50
2022-12-26T15:40:24.442Z,100265.03
2022-12-26T15:43:20.070Z,100264.19
2022-12-26T15:46:05.202Z,100267.66
2022-12-26T15:48:51.764Z,100272.78
2022-12-26T15:51:32.804Z,100270.97
2022-12-26T15:54:38.496Z,100271.84
2022-12-26T15:57:21.729Z,100274.34
2022-12-26T15:59:55.333Z,100271.75
2022-12-26T16:02:25.587Z,100274.41
2022-12-26T16:04:57.469Z,100275.94
2022-12-26T16:07:32.295Z,100281.06
2022-12-26T16:10:00.151Z,100271.63
2022-12-26T16:12:29.101Z,100266.47
2022-12-26T16:15:17.342Z,100267.25
2022-12-26T16:17:46.572Z,100275.03
2022-12-26T16:20:48.159Z,100263.69
2022-12-26T16:23:21.454Z,100271.50
2022-12-26T16:25:50.103Z,100263.69
2022-12-26T16:28:25.471Z,100265.34
2022-12-26T16:30:53.192Z,100252.34
2022-12-26T16:33:20.938Z,100257.63
2022-12-26T16:35:48.397Z,100256.66
2022-12-26T16:38:20.049Z,100257.37
2022-12-26T16:40:49.601Z,100258.25
2022-12-26T16:43:31.288Z,100257.37
2022-12-26T16:46:02.719Z,100259.03
2022-12-26T16:48:32.194Z,100255.62
2022-12-26T16:51:05.908Z,100253.81
2022-12-26T16:53:36.023Z,100257.28
2022-12-26T16:56:22.553Z,100262.47
2022-12-26T16:59:19.825Z,100253.72
2022-12-26T17:01:53.252Z,100251.13
2022-12-26T17:04:23.667Z,100250.22
2022-12-26T17:07:01.838Z,100260.41
2022-12-26T17:09:32.754Z,100262.00
2022-12-26T17:12:07.742Z,100244.81
2022-12-26T17:14:38.094Z,100247.47
2022-12-26T17:17:13.539Z,100245.47
2022-12-26T17:19:41.060Z,100245.47
2022-12-26T17:22:11.697Z,100248.19
2022-12-26T17:24:39.171Z,100247.25
2022-12-26T17:27:20.969Z,100240.16
2022-12-26T17:29:51.495Z,100240.16
2022-12-26T17:32:33.925Z,100233.25
2022-12-26T17:35:05.269Z,100239.34
2022-12-26T17:37:33.226Z,100241.00
2022-12-26T17:40:15.731Z,100253.13
2022-12-26T17:42:56.052Z,100245.53
2022-12-26T17:45:25.464Z,100253.31
2022-12-26T17:47:54.613Z,100248.81
2022-12-26T17:50:23.955Z,100244.59
2022-12-26T17:52:51.466Z,100247.91
2022-12-26T17:55:25.210Z,100243.63
2022-12-26T17:57:53.202Z,100236.59
2022-12-26T18:00:24.656Z,100237.47
2022-12-26T18:02:52.653Z,100233.16
2022-12-26T18:05:20.569Z,100230.37
2022-12-26T18:07:50.971Z,100231.09
2022-12-26T18:10:24.784Z,100228.62
2022-12-26T18:12:52.642Z,100220.09
2022-12-26T18:15:20.793Z,100229.09
2022-12-26T18:17:49.750Z,100223.53
2022-12-26T18:20:23.678Z,100216.19
2022-12-26T18:22:51.883Z,100213.69
2022-12-26T18:25:22.420Z,100212.16
2022-12-26T18:27:50.677Z,100204.31
2022-12-26T18:30:21.862Z,100195.94
2022-12-26T18:32:50.441Z,100201.38
2022-12-26T18:35:18.872Z,100201.81
2022-12-26T18:37:51.800Z,100206.84
2022-12-26T18:40:28.796Z,100192.31
2022-12-26T18:42:56.270Z,100194.16
2022-12-26T18:45:24.044Z,100199.94
2022-12-26T18:47:51.665Z,100207.56
2022-12-26T18:50:19.478Z,100200.00
2022-12-26T18:52:53.150Z,100199.31
2022-12-26T18:55:22.924Z,100200.91
2022-12-26T18:57:50.636Z,100196.50
2022-12-26T19:00:19.105Z,100187.94
2022-12-26T19:02:47.662Z,100183.63
2022-12-26T19:05:21.730Z,100182.75
2022-12-26T19:07:50.172Z,100191.22
2022-12-26T19:10:19.941Z,100187.75
2022-12-26T19:12:48.440Z,100194.81
2022-12-26T19:15:16.339Z,100203.34
2022-12-26T19:17:43.984Z,100202.44
2022-12-26T19:20:23.184Z,100206.78
2022-12-26T19:22:51.939Z,100191.34
2022-12-26T19:25:20.780Z,100198.47
2022-12-26T19:27:48.912Z,100197.59
2022-12-26T19:30:18.144Z,100183.78
2022-12-26T19:32:45.737Z,100182.13
2022-12-26T19:35:14.168Z,100189.97
2022-12-26T19:37:42.181Z,100196.28
2022-12-26T19:40:11.188Z,100197.09
2022-12-26T19:42:38.721Z,100204.94
2022-12-26T19:45:09.110Z,100196.97
2022-12-26T19:47:36.878Z,100197.09
2022-12-26T19:50:05.782Z,100196.91
2022-12-26T19:52:36.405Z,100200.34
2022-12-26T19:55:06.008Z,100202.69
2022-12-26T19:57:34.114Z,100194.16
2022-12-26T20:00:01.776Z,100197.53
2022-12-26T20:02:41.795Z,100192.22
2022-12-26T20:05:10.066Z,100212.75
2022-12-26T20:07:37.481Z,100213.69
2022-12-26T20:10:05.518Z,100227.47
2022-12-26T20:12:33.196Z,100255.53
2022-12-26T20:15:00.561Z,100267.25
2022-12-26T20:17:27.960Z,100258.31
2022-12-26T20:19:55.739Z,100242.06
2022-12-26T20:22:23.600Z,100265.56
2022-12-26T20:24:51.000Z,100259.56
2022-12-26T20:27:18.729Z,100235.72
2022-12-26T20:29:46.095Z,100241.91
2022-12-26T20:32:13.499Z,100239.19
2022-12-26T20:34:41.178Z,100235.56
2022-12-26T20:37:08.646Z,100229.75
2022-12-26T20:39:36.411Z,100225.47
2022-12-26T20:42:04.539Z,100223.84
2022-12-26T20:44:31.931Z,100213.53
2022-12-26T20:46:59.445Z,100198.84
2022-12-26T20:49:27.248Z,100199.81
2022-12-26T20:51:54.630Z,100204.19
2022-12-26T20:54:22.728Z,100203.25
2022-12-26T20:56:50.393Z,100192.09
2022-12-26T20:59:18.046Z,100195.66
2022-12-26T21:01:45.582Z,100196.41
2022-12-26T21:04:19.484Z,100197.47
2022-12-26T21:06:47.634Z,100193.09
2022-12-26T21:09:15.481Z,100198.34
2022-12-26T21:11:45.277Z,100192.13
2022-12-26T21:14:16.715Z,100188.66
2022-12-26T21:16:57.332Z,100222.41
2022-12-26T21:19:26.846Z,100228.22
2022-12-26T21:21:55.586Z,100242.16
2022-12-26T21:24:26.629Z,100228.41
2022-12-26T21:26:55.198Z,100230.13
2022-12-26T21:29:28.709Z,100226.84
2022-12-26T21:31:57.022Z,100228.66
2022-12-26T21:34:26.605Z,100235.56
2022-12-26T21:37:13.491Z,100228.75
2022-12-26T21:39:41.756Z,100228.66
2022-12-26T21:42:09.831Z,100213.03
2022-12-26T21:44:37.629Z,100214.00
2022-12-26T21:47:05.732Z,100215.78
2022-12-26T21:49:33.233Z,100215.62
2022-12-26T21:52:00.641Z,100221.81
2022-12-26T21:54:49.345Z,100221.81
2022-12-26T21:57:18.121Z,100221.84
2022-12-26T21:59:58.291Z,100216.72
2022-12-26T22:02:48.221Z,100221.06
2022-12-26T22:05:17.272Z,100218.50
2022-12-26T22:07:44.665Z,100219.34
2022-12-26T22:10:32.566Z,100219.38
2022-12-26T22:13:00.980Z,100224.56
2022-12-26T22:15:47.064Z,100230.66
2022-12-26T22:18:14.818Z,100230.72
2022-12-26T22:20:44.548Z,100230.50
2022-12-26T22:23:13.246Z,100225.47
2022-12-26T22:25:40.942Z,100221.22
2022-12-26T22:28:08.418Z,100215.22
2022-12-26T22:30:35.767Z,100222.19
2022-12-26T22:33:03.513Z,100223.84
2022-12-26T22:35:30.928Z,100225.44
2022-12-26T22:37:58.395Z,100229.78
2022-12-26T22:40:26.070Z,100217.63
2022-12-26T22:42:53.422Z,100202.06
2022-12-26T22:45:20.772Z,100209.06
2022-12-26T22:47:48.415Z,100210.75
2022-12-26T22:50:18.629Z,100213.37
2022-12-26T22:52:46.034Z,100210.88
2022-12-26T22:55:14.413Z,100205.66
2022-12-26T22:57:42.214Z,100202.28
2022-12-26T23:00:12.510Z,100205.66
2022-12-26T23:02:40.348Z,100224.66
2022-12-26T23:05:10.514Z,100227.13
2022-12-26T23:07:38.474Z,100232.44
2022-12-26T23:10:07.492Z,100249.38
2022-12-26T23:12:44.266Z,100251.16
2022-12-26T23:15:14.636Z,100253.87
2022-12-26T23:18:05.922Z,100265.28
2022-12-26T23:20:55.035Z,100267.03
2022-12-26T23:23:23.327Z,100268.69
2022-12-26T23:25:51.108Z,100261.09
2022-12-26T23:28:37.207Z,100248.16
2022-12-26T23:31:05.028Z,100256.88
2022-12-26T23:33:32.580Z,100261.09
2022-12-26T23:36:01.005Z,100256.78
2022-12-26T23:38:28.797Z,100229.97
2022-12-26T23:40:56.243Z,100244.81
2022-12-26T23:43:23.891Z,100259.59
2022-12-26T23:45:51.587Z,100259.31
2022-12-26T23:48:19.039Z,100255.13
2022-12-26T23:50:46.493Z,100254.31
2022-12-26T23:53:14.209Z,100256.03
2022-12-26T23:55:42.522Z,100257.91
2022-12-26T23:58:10.026Z,100257.00
